createdAt,value
2023-09-11T00:00:27.088Z,90.80
2023-09-11T00:03:12.735Z,90.60
2023-09-11T00:06:06.396Z,90.40
2023-09-11T00:08:53.221Z,90.30
2023-09-11T00:11:38.397Z,90.60
2023-09-11T00:14:23.926Z,90.70
2023-09-11T00:17:09.241Z,90.50
2023-09-11T00:19:55.278Z,90.40
2023-09-11T00:22:40.833Z,90.90
2023-09-11T00:25:29.651Z,90.80
2023-09-11T00:28:14.862Z,90.80
2023-09-11T00:31:00.962Z,90.80
2023-09-11T00:33:46.689Z,90.70
2023-09-11T00:36:31.867Z,90.80
2023-09-11T00:39:17.254Z,90.80
2023-09-11T00:42:03.486Z,90.70
2023-09-11T00:44:48.800Z,90.80
2023-09-11T00:47:34.745Z,91.00
2023-09-11T00:50:21.564Z,90.90
2023-09-11T00:53:08.714Z,90.80
2023-09-11T00:55:54.423Z,90.90
2023-09-11T00:58:40.094Z,90.80
2023-09-11T01:01:25.834Z,90.90
2023-09-11T01:04:11.854Z,90.80
2023-09-11T01:06:57.288Z,90.80
2023-09-11T01:09:42.633Z,90.80
2023-09-11T01:12:28.157Z,91.10
2023-09-11T01:15:13.670Z,91.10
2023-09-11T01:18:14.459Z,90.80
2023-09-11T01:21:13.370Z,90.90
2023-09-11T01:24:16.282Z,90.90
2023-09-11T01:27:24.396Z,90.90
2023-09-11T01:30:11.679Z,91.00
2023-09-11T01:32:57.790Z,90.80
2023-09-11T01:35:43.379Z,91.20
2023-09-11T01:38:29.039Z,91.10
2023-09-11T01:41:16.007Z,91.20
2023-09-11T01:44:14.000Z,91.10
2023-09-11T01:47:00.609Z,90.80
2023-09-11T01:49:48.367Z,91.00
2023-09-11T01:52:34.501Z,91.00
2023-09-11T01:55:19.985Z,90.90
2023-09-11T01:58:05.675Z,91.00
2023-09-11T02:00:51.301Z,91.10
2023-09-11T02:03:37.004Z,91.40
2023-09-11T02:06:22.460Z,91.10
2023-09-11T02:09:07.852Z,91.30
2023-09-11T02:11:53.315Z,91.10
2023-09-11T02:14:38.762Z,91.50
2023-09-11T02:17:24.216Z,91.30
2023-09-11T02:20:10.265Z,91.20
2023-09-11T02:22:55.582Z,91.10
2023-09-11T02:25:42.009Z,91.20
2023-09-11T02:28:28.121Z,91.00
2023-09-11T02:31:14.051Z,91.10
2023-09-11T02:33:59.787Z,91.00
2023-09-11T02:36:45.232Z,91.40
2023-09-11T02:39:30.618Z,91.20
2023-09-11T02:42:16.117Z,91.40
2023-09-11T02:45:01.557Z,91.90
2023-09-11T02:47:47.412Z,91.10
2023-09-11T02:50:33.409Z,91.50
2023-09-11T02:53:19.196Z,92.00
2023-09-11T02:56:04.383Z,91.50
2023-09-11T02:58:49.756Z,91.60
2023-09-11T03:01:35.848Z,91.40
2023-09-11T03:04:21.394Z,91.30
2023-09-11T03:07:06.814Z,91.20
2023-09-11T03:09:52.238Z,91.10
2023-09-11T03:12:37.597Z,91.20
2023-09-11T03:15:30.499Z,91.10
2023-09-11T03:18:15.909Z,91.30
2023-09-11T03:21:01.366Z,91.50
2023-09-11T03:23:46.747Z,91.50
2023-09-11T03:26:32.148Z,91.60
2023-09-11T03:29:18.273Z,91.50
2023-09-11T03:32:03.539Z,91.60
2023-09-11T03:34:54.992Z,91.40
2023-09-11T03:37:40.116Z,91.30
2023-09-11T03:40:26.183Z,92.00
2023-09-11T03:43:11.664Z,91.90
2023-09-11T03:45:57.031Z,92.00
2023-09-11T03:48:43.084Z,91.70
2023-09-11T03:51:28.620Z,91.70
2023-09-11T03:54:14.198Z,91.90
2023-09-11T03:56:59.679Z,91.90
2023-09-11T03:59:45.074Z,92.20
2023-09-11T04:02:30.567Z,92.10
2023-09-11T04:05:15.882Z,91.70
2023-09-11T04:08:01.290Z,91.80
2023-09-11T04:10:46.800Z,92.00
2023-09-11T04:13:32.226Z,92.10
2023-09-11T04:16:17.919Z,92.30
2023-09-11T04:19:03.162Z,92.20
2023-09-11T04:21:48.657Z,92.00
2023-09-11T04:24:34.278Z,92.40
2023-09-11T04:27:19.706Z,92.20
2023-09-11T04:30:05.864Z,92.50
2023-09-11T04:32:51.347Z,92.60
2023-09-11T04:35:36.752Z,92.50
2023-09-11T04:38:22.227Z,92.80
2023-09-11T04:41:07.575Z,92.40
2023-09-11T04:43:53.042Z,92.50
2023-09-11T04:46:39.030Z,92.50
2023-09-11T04:49:24.531Z,92.40
2023-09-11T04:52:09.829Z,92.50
2023-09-11T04:54:55.380Z,92.80
2023-09-11T04:57:41.404Z,93.10
2023-09-11T05:00:28.021Z,93.20
2023-09-11T05:03:13.708Z,92.90
2023-09-11T05:06:00.268Z,93.70
2023-09-11T05:09:08.632Z,93.20
2023-09-11T05:11:51.596Z,93.00
2023-09-11T05:14:37.258Z,92.90
2023-09-11T05:17:23.280Z,93.10
2023-09-11T05:20:08.869Z,93.30
2023-09-11T05:22:53.981Z,93.40
2023-09-11T05:25:39.461Z,93.30
2023-09-11T05:28:25.299Z,93.40
2023-09-11T05:31:11.523Z,93.60
2023-09-11T05:33:56.844Z,93.60
2023-09-11T05:36:42.475Z,93.40
2023-09-11T05:39:27.713Z,93.70
2023-09-11T05:42:13.334Z,94.00
2023-09-11T05:44:58.857Z,94.60
2023-09-11T05:47:45.172Z,94.70
2023-09-11T05:50:30.286Z,94.60
2023-09-11T05:53:15.629Z,94.40
2023-09-11T05:56:01.180Z,94.50
2023-09-11T05:58:46.856Z,94.60
2023-09-11T06:01:32.325Z,94.50
2023-09-11T06:04:17.812Z,94.70
2023-09-11T06:07:04.608Z,94.40
2023-09-11T06:09:50.125Z,94.50
2023-09-11T06:12:35.660Z,94.50
2023-09-11T06:15:21.338Z,94.50
2023-09-11T06:18:06.886Z,93.70
2023-09-11T06:20:52.368Z,93.10
2023-09-11T06:23:38.329Z,92.90
2023-09-11T06:26:23.680Z,93.10
2023-09-11T06:29:09.306Z,92.80
2023-09-11T06:31:54.711Z,93.00
2023-09-11T06:34:40.501Z,93.00
2023-09-11T06:37:25.905Z,93.00
2023-09-11T06:40:11.600Z,92.90
2023-09-11T06:42:58.241Z,93.50
2023-09-11T06:45:43.819Z,93.20
2023-09-11T06:48:29.924Z,93.30
2023-09-11T06:51:15.315Z,93.00
2023-09-11T06:54:01.651Z,93.30
2023-09-11T06:56:46.806Z,93.30
2023-09-11T06:59:32.416Z,93.30
2023-09-11T07:02:17.861Z,93.10
2023-09-11T07:05:05.682Z,93.20
2023-09-11T07:07:50.913Z,93.60
2023-09-11T07:10:41.613Z,93.60
2023-09-11T07:13:27.360Z,93.90
2023-09-11T07:16:13.100Z,93.80
2023-09-11T07:18:58.729Z,93.60
2023-09-11T07:21:45.575Z,94.00
2023-09-11T07:24:31.139Z,93.90
2023-09-11T07:27:16.516Z,93.80
2023-09-11T07:30:02.302Z,94.00
2023-09-11T07:32:47.250Z,94.00
2023-09-11T07:35:32.687Z,94.30
2023-09-11T07:38:18.393Z,94.10
2023-09-11T07:41:03.422Z,94.30
2023-09-11T07:43:52.244Z,94.00
2023-09-11T07:46:37.973Z,94.30
2023-09-11T07:49:23.612Z,94.00
2023-09-11T07:52:09.158Z,94.20
2023-09-11T07:54:54.483Z,94.40
2023-09-11T07:57:41.295Z,94.40
2023-09-11T08:00:31.750Z,94.70
2023-09-11T08:03:17.308Z,94.70
2023-09-11T08:06:05.348Z,94.90
2023-09-11T08:08:51.285Z,94.50
2023-09-11T08:11:40.781Z,94.90
2023-09-11T08:14:26.154Z,94.90
2023-09-11T08:17:12.174Z,94.50
2023-09-11T08:19:58.505Z,94.60
2023-09-11T08:22:43.784Z,94.40
2023-09-11T08:25:30.794Z,94.20
2023-09-11T08:28:16.171Z,94.50
2023-09-11T08:31:02.084Z,94.10
2023-09-11T08:33:54.386Z,93.80
2023-09-11T08:36:40.639Z,93.70
2023-09-11T08:39:26.453Z,93.50
2023-09-11T08:42:12.620Z,93.80
2023-09-11T08:44:58.129Z,93.00
2023-09-11T08:47:45.443Z,92.90
2023-09-11T08:50:34.199Z,92.50
2023-09-11T08:53:20.381Z,92.40
2023-09-11T08:56:06.410Z,91.80
2023-09-11T08:58:53.880Z,91.10
2023-09-11T09:01:41.056Z,91.20
2023-09-11T09:04:27.157Z,91.20
2023-09-11T09:07:13.810Z,90.60
2023-09-11T09:09:59.796Z,90.70
2023-09-11T09:12:46.456Z,90.30
2023-09-11T09:15:36.742Z,90.30
2023-09-11T09:18:22.018Z,90.60
2023-09-11T09:21:08.318Z,90.30
2023-09-11T09:23:53.936Z,89.70
2023-09-11T09:27:03.808Z,90.20
2023-09-11T09:29:49.736Z,90.00
2023-09-11T09:32:35.482Z,89.90
2023-09-11T09:38:42.711Z,88.50
2023-09-11T09:41:46.254Z,88.50
2023-09-11T09:48:40.457Z,87.70
2023-09-11T09:51:58.444Z,87.60
2023-09-11T09:55:25.604Z,87.20
2023-09-11T09:58:47.996Z,86.40
2023-09-11T10:01:55.212Z,86.50
2023-09-11T10:08:36.342Z,86.60
2023-09-11T10:11:40.483Z,86.60
2023-09-11T10:14:31.556Z,86.30
2023-09-11T10:17:38.432Z,85.00
2023-09-11T10:20:29.989Z,84.30
2023-09-11T10:23:15.120Z,83.90
2023-09-11T10:26:06.014Z,83.90
2023-09-11T10:28:55.793Z,83.70
2023-09-11T10:31:52.570Z,83.60
2023-09-11T10:34:39.236Z,82.70
2023-09-11T10:37:25.916Z,83.30
2023-09-11T10:40:12.766Z,82.10
2023-09-11T10:42:59.111Z,82.50
2023-09-11T10:45:44.486Z,81.50
2023-09-11T10:48:31.859Z,83.00
2023-09-11T10:51:17.768Z,82.50
2023-09-11T10:54:02.879Z,82.80
2023-09-11T10:56:53.111Z,80.40
2023-09-11T10:59:39.930Z,81.20
2023-09-11T11:02:25.622Z,80.90
2023-09-11T11:05:16.229Z,81.30
2023-09-11T11:08:02.770Z,79.50
2023-09-11T11:10:52.486Z,79.40
2023-09-11T11:13:40.154Z,79.40
2023-09-11T11:16:25.991Z,78.30
2023-09-11T11:19:25.931Z,79.30
2023-09-11T11:22:33.812Z,79.80
2023-09-11T11:25:19.019Z,79.80
2023-09-11T11:28:28.421Z,79.80
2023-09-11T11:31:21.880Z,80.10
2023-09-11T11:34:07.700Z,79.30
2023-09-11T11:36:55.368Z,78.00
2023-09-11T11:39:41.152Z,78.50
2023-09-11T11:42:27.420Z,78.90
2023-09-11T11:45:13.256Z,78.00
2023-09-11T11:47:59.110Z,78.20
2023-09-11T11:50:46.010Z,76.90
2023-09-11T11:53:33.107Z,76.50
2023-09-11T11:56:18.259Z,78.00
2023-09-11T11:59:04.086Z,76.40
2023-09-11T12:01:49.428Z,76.70
2023-09-11T12:04:49.569Z,74.80
2023-09-11T12:07:35.854Z,75.00
2023-09-11T12:10:21.359Z,73.80
2023-09-11T12:13:12.851Z,73.70
2023-09-11T12:16:00.118Z,73.60
2023-09-11T12:18:45.752Z,73.60
2023-09-11T12:21:32.767Z,73.30
2023-09-11T12:24:18.017Z,74.10
2023-09-11T12:27:06.068Z,74.90
2023-09-11T12:29:53.061Z,75.70
2023-09-11T12:32:39.993Z,75.30
2023-09-11T12:35:33.713Z,75.70
2023-09-11T12:38:19.859Z,73.80
2023-09-11T12:41:05.276Z,74.70
2023-09-11T12:43:50.685Z,74.20
2023-09-11T12:46:37.161Z,73.80
2023-09-11T12:49:22.578Z,72.40
2023-09-11T12:52:08.767Z,72.20
2023-09-11T12:54:53.980Z,73.00
2023-09-11T12:57:40.674Z,72.90
2023-09-11T13:00:34.232Z,73.30
2023-09-11T13:03:20.259Z,72.10
2023-09-11T13:06:05.454Z,71.70
2023-09-11T13:08:50.756Z,70.90
2023-09-11T13:11:36.185Z,72.30
2023-09-11T13:14:21.703Z,72.20
2023-09-11T13:17:07.359Z,72.90
2023-09-11T13:19:53.840Z,71.30
2023-09-11T13:22:43.451Z,71.60
2023-09-11T13:25:29.309Z,71.10
2023-09-11T13:28:15.451Z,70.50
2023-09-11T13:31:01.280Z,73.60
2023-09-11T13:33:46.967Z,74.10
2023-09-11T13:36:32.664Z,73.50
2023-09-11T13:39:18.565Z,72.50
2023-09-11T13:42:03.796Z,72.50
2023-09-11T13:44:49.390Z,73.90
2023-09-11T13:47:35.088Z,72.60
2023-09-11T13:50:20.597Z,71.40
2023-09-11T13:53:06.095Z,71.70
2023-09-11T13:55:51.491Z,72.50
2023-09-11T13:58:37.035Z,71.20
2023-09-11T14:01:22.590Z,71.60
2023-09-11T14:04:08.196Z,70.40
2023-09-11T14:06:53.408Z,70.70
2023-09-11T14:09:39.720Z,71.20
2023-09-11T14:12:25.035Z,70.70
2023-09-11T14:15:10.843Z,69.50
2023-09-11T14:17:55.879Z,70.70
2023-09-11T14:20:41.390Z,71.40
2023-09-11T14:23:26.876Z,70.60
2023-09-11T14:26:12.722Z,70.70
2023-09-11T14:28:58.291Z,70.30
2023-09-11T14:31:44.644Z,68.50
2023-09-11T14:34:30.279Z,68.80
2023-09-11T14:37:23.335Z,68.30
2023-09-11T14:40:11.194Z,69.60
2023-09-11T14:42:56.613Z,69.80
2023-09-11T14:45:42.283Z,70.30
2023-09-11T14:48:27.810Z,69.90
2023-09-11T14:51:13.250Z,70.80
2023-09-11T14:53:58.814Z,69.20
2023-09-11T14:56:45.271Z,70.70
2023-09-11T14:59:30.607Z,70.70
2023-09-11T15:02:16.130Z,70.70
2023-09-11T15:05:01.781Z,70.70
2023-09-11T15:07:47.000Z,69.90
2023-09-11T15:10:32.431Z,70.50
2023-09-11T15:13:17.895Z,70.70
2023-09-11T15:16:03.409Z,69.70
2023-09-11T15:18:49.278Z,69.90
2023-09-11T15:21:35.057Z,69.40
2023-09-11T15:24:20.654Z,70.10
2023-09-11T15:27:07.659Z,70.30
2023-09-11T15:29:52.852Z,69.10
2023-09-11T15:32:38.574Z,70.70
2023-09-11T15:35:24.017Z,70.50
2023-09-11T15:38:09.699Z,69.50
2023-09-11T15:40:59.737Z,69.60
2023-09-11T15:43:46.803Z,69.70
2023-09-11T15:46:41.201Z,68.30
2023-09-11T15:49:27.365Z,69.30
2023-09-11T15:52:12.839Z,69.20
2023-09-11T15:54:58.422Z,68.90
2023-09-11T15:57:43.926Z,70.30
2023-09-11T16:00:29.681Z,70.10
2023-09-11T16:03:16.138Z,70.30
2023-09-11T16:06:03.198Z,69.50
2023-09-11T16:08:48.687Z,69.40
2023-09-11T16:11:34.330Z,69.40
2023-09-11T16:14:20.261Z,70.10
2023-09-11T16:17:06.621Z,70.50
2023-09-11T16:19:51.947Z,70.80
2023-09-11T16:22:37.612Z,71.60
2023-09-11T16:25:23.417Z,71.10
2023-09-11T16:28:10.263Z,70.10
2023-09-11T16:30:55.869Z,70.10
2023-09-11T16:33:41.570Z,70.00
2023-09-11T16:36:26.975Z,70.00
2023-09-11T16:39:12.815Z,69.60
2023-09-11T16:41:58.705Z,70.30
2023-09-11T16:44:46.004Z,70.70
2023-09-11T16:47:31.677Z,70.40
2023-09-11T16:50:18.329Z,70.00
2023-09-11T16:53:04.229Z,70.90
2023-09-11T16:55:49.707Z,71.80
2023-09-11T16:58:35.154Z,72.10
2023-09-11T17:01:20.814Z,72.30
2023-09-11T17:04:06.252Z,72.70
2023-09-11T17:06:51.733Z,73.30
2023-09-11T17:09:37.215Z,73.70
2023-09-11T17:12:22.809Z,74.90
2023-09-11T17:15:09.818Z,75.20
2023-09-11T17:17:55.317Z,75.40
2023-09-11T17:20:41.798Z,74.70
2023-09-11T17:23:26.979Z,74.50
2023-09-11T17:26:13.885Z,73.80
2023-09-11T17:28:59.037Z,73.40
2023-09-11T17:31:46.536Z,72.50
2023-09-11T17:34:31.828Z,73.10
2023-09-11T17:37:19.364Z,73.20
2023-09-11T17:40:05.019Z,72.60
2023-09-11T17:42:50.362Z,72.70
2023-09-11T17:45:37.788Z,73.80
2023-09-11T17:48:23.019Z,73.80
2023-09-11T17:51:08.855Z,74.40
2023-09-11T17:53:54.151Z,73.70
2023-09-11T17:56:39.682Z,73.80
2023-09-11T17:59:25.326Z,73.10
2023-09-11T18:02:10.797Z,74.20
2023-09-11T18:04:59.128Z,74.80
2023-09-11T18:07:45.231Z,74.50
2023-09-11T18:10:30.494Z,74.20
2023-09-11T18:13:18.460Z,74.30
2023-09-11T18:16:03.868Z,74.00
2023-09-11T18:18:49.280Z,73.90
2023-09-11T18:21:34.885Z,74.10
2023-09-11T18:24:20.409Z,74.40
2023-09-11T18:27:06.128Z,74.20
2023-09-11T18:29:51.445Z,75.10
2023-09-11T18:32:36.874Z,75.20
2023-09-11T18:35:22.199Z,75.50
2023-09-11T18:38:07.661Z,75.70
2023-09-11T18:40:53.238Z,76.30
2023-09-11T18:43:38.782Z,76.50
2023-09-11T18:46:24.307Z,76.70
2023-09-11T18:49:10.098Z,77.10
2023-09-11T18:51:56.863Z,77.30
2023-09-11T18:54:43.578Z,77.50
2023-09-11T18:57:29.095Z,78.00
2023-09-11T19:00:16.305Z,78.20
2023-09-11T19:03:01.636Z,78.00
2023-09-11T19:05:47.077Z,78.50
2023-09-11T19:08:32.299Z,78.50
2023-09-11T19:11:17.780Z,78.50
2023-09-11T19:14:03.503Z,78.60
2023-09-11T19:16:48.990Z,78.70
2023-09-11T19:19:36.005Z,79.00
2023-09-11T19:22:22.794Z,79.20
2023-09-11T19:25:08.659Z,79.30
2023-09-11T19:27:54.246Z,80.00
2023-09-11T19:30:40.108Z,79.90
2023-09-11T19:33:25.754Z,79.80
2023-09-11T19:36:11.013Z,79.30
2023-09-11T19:38:56.388Z,79.40
2023-09-11T19:41:41.732Z,81.20
2023-09-11T19:44:28.211Z,79.70
2023-09-11T19:47:14.045Z,79.70
2023-09-11T19:49:59.541Z,79.30
2023-09-11T19:52:44.986Z,79.40
2023-09-11T19:55:31.161Z,79.00
2023-09-11T19:58:16.415Z,79.20
2023-09-11T20:01:02.122Z,79.10
2023-09-11T20:03:47.854Z,78.70
2023-09-11T20:06:33.337Z,78.90
2023-09-11T20:09:19.569Z,78.50
2023-09-11T20:12:07.754Z,78.70
2023-09-11T20:14:53.352Z,78.70
2023-09-11T20:17:38.625Z,78.70
2023-09-11T20:20:24.030Z,79.10
2023-09-11T20:23:10.310Z,79.40
2023-09-11T20:25:55.520Z,79.40
2023-09-11T20:28:41.109Z,79.40
2023-09-11T20:31:26.908Z,79.40
2023-09-11T20:34:12.498Z,79.40
2023-09-11T20:36:58.027Z,79.50
2023-09-11T20:39:43.741Z,79.50
2023-09-11T20:42:29.453Z,79.40
2023-09-11T20:45:14.900Z,79.30
2023-09-11T20:48:00.485Z,79.30
2023-09-11T20:50:45.973Z,78.90
2023-09-11T20:53:31.508Z,80.00
2023-09-11T20:56:17.451Z,79.30
2023-09-11T20:59:03.456Z,79.40
2023-09-11T21:01:49.209Z,79.60
2023-09-11T21:04:34.790Z,79.40
2023-09-11T21:07:20.404Z,79.50
2023-09-11T21:10:06.528Z,79.40
2023-09-11T21:12:54.846Z,79.50
2023-09-11T21:15:39.931Z,79.60
2023-09-11T21:18:25.638Z,79.70
2023-09-11T21:21:11.317Z,79.60
2023-09-11T21:23:56.800Z,79.60
2023-09-11T21:26:43.654Z,79.40
2023-09-11T21:29:28.969Z,79.30
2023-09-11T21:32:14.747Z,79.20
2023-09-11T21:35:00.509Z,79.00
2023-09-11T21:37:46.824Z,78.90
2023-09-11T21:40:33.592Z,78.70
2023-09-11T21:43:19.018Z,78.50
2023-09-11T21:46:04.457Z,78.00
2023-09-11T21:48:50.326Z,78.40
2023-09-11T21:51:35.509Z,78.80
2023-09-11T21:54:21.055Z,79.30
2023-09-11T21:57:06.474Z,79.30
2023-09-11T21:59:51.945Z,79.50
2023-09-11T22:02:37.602Z,79.80
2023-09-11T22:05:23.155Z,79.90
2023-09-11T22:08:08.292Z,79.80
2023-09-11T22:10:54.395Z,80.00
2023-09-11T22:13:40.138Z,80.40
2023-09-11T22:16:26.546Z,80.90
2023-09-11T22:19:12.167Z,81.10
2023-09-11T22:21:57.401Z,81.30
2023-09-11T22:24:42.829Z,81.40
2023-09-11T22:27:28.451Z,81.40
2023-09-11T22:30:14.156Z,81.30
2023-09-11T22:32:59.216Z,81.50
2023-09-11T22:35:53.965Z,81.60
2023-09-11T22:38:40.023Z,81.70
2023-09-11T22:41:25.552Z,81.70
2023-09-11T22:44:14.079Z,81.70
2023-09-11T22:47:01.414Z,81.90
2023-09-11T22:49:46.582Z,82.10
2023-09-11T22:52:32.087Z,82.50
2023-09-11T22:55:18.895Z,82.70
2023-09-11T22:58:04.893Z,83.10
2023-09-11T23:00:50.302Z,82.70
2023-09-11T23:03:40.849Z,82.50
2023-09-11T23:06:26.641Z,82.40
2023-09-11T23:09:11.953Z,82.20
2023-09-11T23:11:57.404Z,82.00
2023-09-11T23:14:42.742Z,82.00
2023-09-11T23:17:28.092Z,81.90
2023-09-11T23:20:13.864Z,82.00
2023-09-11T23:22:59.114Z,82.00
2023-09-11T23:25:48.144Z,81.80
2023-09-11T23:28:34.554Z,82.20
2023-09-11T23:31:20.222Z,81.50
2023-09-11T23:34:06.212Z,81.60
2023-09-11T23:36:51.567Z,81.70
2023-09-11T23:42:22.832Z,91.60
2023-09-11T23:45:08.349Z,81.90
2023-09-11T23:47:53.851Z,82.10
2023-09-11T23:50:39.392Z,82.40
2023-09-11T23:53:24.983Z,82.60
2023-09-11T23:56:10.490Z,83.10
2023-09-11T23:58:55.791Z,82.90
